Time;durP1;ratioP1;P1;durP2;ratioP2;P2;SDS_P1;SDS_P2;PMS_P1;PMS_P2;Temp;Humidity;BMP_temperature;BMP_pressure;BME280_temperature;BME280_humidity;BME280_pressure;Samples;Min_cycle;Max_cycle;Signal;HPM_P1;HPM_P2
2022/04/28 00:00:40;;;;;;;43.83;25.40;;;;;;;;;;5071002;28;20123;-70
2022/04/28 00:03:07;;;;;;;47.08;26.55;;;;;;;;;;5071989;28;20390;-70
2022/04/28 00:05:32;;;;;;;48.03;27.30;;;;;;;;;;5058562;28;20513;-71
2022/04/28 00:07:57;;;;;;;51.35;27.33;;;;;;;;;;5069809;28;20037;-70
2022/04/28 00:10:23;;;;;;;48.47;27.90;;;;;;;10.85;nan;100859.53;5072868;28;20044;-70
2022/04/28 00:12:49;;;;;;;47.53;27.13;;;;;;;;;;5052596;28;20098;-71
2022/04/28 00:15:14;;;;;;;48.47;27.70;;;;;;;;;;5070416;28;20483;-70
2022/04/28 00:17:40;;;;;;;48.65;28.67;;;;;;;;;;5069727;28;20389;-70
2022/04/28 00:20:06;;;;;;;50.72;28.80;;;;;;;;;;5072356;28;20102;-71
2022/04/28 00:22:31;;;;;;;51.42;29.02;;;;;;;;;;5068140;28;20044;-70
2022/04/28 00:24:56;;;;;;;53.50;29.00;;;;;;;;;;5070539;28;20517;-70
2022/04/28 00:27:22;;;;;;;53.88;30.00;;;;;;;;;;5069558;28;20106;-69
2022/04/28 00:29:47;;;;;;;54.10;30.47;;;;;;;;;;5070788;28;20036;-70
2022/04/28 00:32:12;;;;;;;53.75;30.08;;;;;;;;;;5063823;28;20312;-71
2022/04/28 00:34:38;;;;;;;55.65;32.15;;;;;;;;;;5051004;28;20092;-71
2022/04/28 00:37:04;;;;;;;52.33;29.33;;;;;;;10.80;nan;100845.41;5066110;28;20127;-71
2022/04/28 00:39:29;;;;;;;57.20;31.25;;;;;;;;;;5070955;28;20464;-72
2022/04/28 00:41:54;;;;;;;54.90;31.37;;;;;;;;;;5071793;28;20116;-72
2022/04/28 00:44:20;;;;;;;60.88;32.45;;;;;;;;;;5054519;28;20307;-71
2022/04/28 00:46:45;;;;;;;58.85;32.22;;;;;;;;;;5042597;28;20091;-71
2022/04/28 00:51:55;;;;;;;56.60;31.90;;;;;;;;;;5070311;28;20041;-69
2022/04/28 00:54:21;;;;;;;60.20;32.20;;;;;;;;;;5050344;28;20051;-70
2022/04/28 00:56:46;;;;;;;59.80;33.45;;;;;;;;;;5050228;28;20052;-72
2022/04/28 00:59:12;;;;;;;60.97;33.80;;;;;;;;;;5070715;28;20040;-70
2022/04/28 01:01:37;;;;;;;65.88;35.17;;;;;;;;;;5053116;28;20083;-71
2022/04/28 01:04:03;;;;;;;65.60;33.28;;;;;;;;;;5075853;28;20482;-71
2022/04/28 01:06:29;;;;;;;64.90;33.03;;;;;;;;;;5058192;28;20700;-71
2022/04/28 01:08:55;;;;;;;59.60;32.47;;;;;;;;;;5051399;28;20048;-71
2022/04/28 01:11:21;;;;;;;64.55;33.05;;;;;;;;;;5070656;28;20074;-72
2022/04/28 01:13:47;;;;;;;62.95;33.58;;;;;;;;;;5070409;28;20442;-70
2022/04/28 01:16:13;;;;;;;58.97;32.08;;;;;;;;;;5068587;28;20024;-71
2022/04/28 01:18:39;;;;;;;56.45;32.63;;;;;;;10.58;nan;100905.50;5071103;28;20052;-70
2022/04/28 01:21:05;;;;;;;55.38;31.55;;;;;;;;;;5050971;28;20041;-69
2022/04/28 01:23:34;;;;;;;56.17;31.50;;;;;;;;;;5052229;28;20032;-70
2022/04/28 01:25:59;;;;;;;58.67;32.55;;;;;;;;;;5068130;28;20036;-71
2022/04/28 01:28:32;;;;;;;56.65;31.33;;;;;;;10.52;nan;100830.81;5049529;28;20119;-70
2022/04/28 01:31:02;;;;;;;59.53;32.92;;;;;;;;;;5039733;28;20036;-70
2022/04/28 01:33:27;;;;;;;59.40;30.92;;;;;;;;;;5053111;28;20029;-71
2022/04/28 01:35:52;;;;;;;53.87;29.43;;;;;;;;;;5069259;28;20124;-71
2022/04/28 01:38:18;;;;;;;57.63;30.57;;;;;;;;;;5071915;28;20265;-70
2022/04/28 01:40:44;;;;;;;57.08;31.83;;;;;;;;;;5071421;28;20272;-71
2022/04/28 01:43:09;;;;;;;56.17;30.85;;;;;;;;;;5053397;28;20036;-69
2022/04/28 01:45:34;;;;;;;56.20;30.87;;;;;;;;;;5070096;28;20029;-70
2022/04/28 01:47:59;;;;;;;57.85;30.92;;;;;;;;;;5074168;28;20273;-70
2022/04/28 01:50:25;;;;;;;57.10;30.00;;;;;;;10.39;nan;100884.38;5091577;28;20036;-72
2022/04/28 01:55:34;;;;;;;54.08;30.08;;;;;;;;;;5093044;28;20021;-71
2022/04/28 01:57:59;;;;;;;50.03;28.17;;;;;;;;;;5093799;28;20082;-70
2022/04/28 02:00:25;;;;;;;56.10;29.03;;;;;;;;;;5077117;28;20272;-70
2022/04/28 02:02:51;;;;;;;53.95;29.40;;;;;;;;;;5075968;28;20280;-68
2022/04/28 02:05:16;;;;;;;53.80;29.05;;;;;;;;;;5066959;28;20044;-73
2022/04/28 02:07:41;;;;;;;52.92;28.67;;;;;;;;;;5080903;28;20044;-70
2022/04/28 02:10:07;;;;;;;50.40;28.15;;;;;;;;;;5081871;28;20040;-72
2022/04/28 02:12:32;;;;;;;54.80;28.58;;;;;;;;;;5065770;28;20062;-71
2022/04/28 02:14:58;;;;;;;56.80;29.20;;;;;;;;;;5079993;28;20124;-70
2022/04/28 02:17:24;;;;;;;50.35;28.75;;;;;;;;;;5079608;28;20040;-70
2022/04/28 02:19:49;;;;;;;55.17;29.17;;;;;;;;;;5075781;28;20537;-71
2022/04/28 02:22:15;;;;;;;55.67;29.30;;;;;;;;;;5073137;28;20070;-72
2022/04/28 02:24:40;;;;;;;53.63;29.73;;;;;;;;;;5054155;28;20072;-71
2022/04/28 02:27:06;;;;;;;57.92;30.30;;;;;;;;;;5047411;28;20036;-71
2022/04/28 02:29:31;;;;;;;56.72;28.55;;;;;;;;;;5051400;28;20090;-71
2022/04/28 02:31:56;;;;;;;58.35;30.35;;;;;;;;;;5071481;28;20066;-71
2022/04/28 02:34:22;;;;;;;54.47;28.97;;;;;;;;;;5064480;28;20037;-70
2022/04/28 02:36:47;;;;;;;52.42;28.42;;;;;;;;;;5066270;28;20773;-73
2022/04/28 02:39:14;;;;;;;56.33;28.60;;;;;;;;;;5052979;28;20044;-72
2022/04/28 02:41:40;;;;;;;53.15;28.83;;;;;;;;;;5053047;28;20036;-72
2022/04/28 02:44:06;;;;;;;56.47;29.33;;;;;;;;;;5052967;28;20040;-70
2022/04/28 02:46:31;;;;;;;56.53;28.58;;;;;;;;;;5066934;28;20509;-71
2022/04/28 02:48:57;;;;;;;52.28;28.27;;;;;;;;;;5034449;28;20044;-71
2022/04/28 02:51:22;;;;;;;54.22;28.75;;;;;;;;;;5056698;28;20032;-70
2022/04/28 02:53:48;;;;;;;53.85;28.27;;;;;;;;;;5070603;28;20036;-71
2022/04/28 02:56:13;;;;;;;54.47;29.30;;;;;;;;;;5066591;28;20048;-71
2022/04/28 02:58:38;;;;;;;54.45;28.98;;;;;;;;;;5070130;28;20123;-71
2022/04/28 03:01:04;;;;;;;57.65;28.35;;;;;;;;;;5069227;28;20039;-72
2022/04/28 03:03:29;;;;;;;56.33;29.70;;;;;;;;;;5051090;28;20375;-73
2022/04/28 03:11:23;;;;;;;56.17;29.70;;;;;;;;;;5068748;28;20025;-72
2022/04/28 03:13:48;;;;;;;61.35;30.75;;;;;;;;;;5051828;28;20376;-72
2022/04/28 03:16:14;;;;;;;52.22;27.13;;;;;;;;;;5068154;28;20048;-71
2022/04/28 03:18:39;;;;;;;55.73;28.90;;;;;;;;;;5050533;28;20559;-71
2022/04/28 03:21:08;;;;;;;51.87;28.03;;;;;;;;;;5069762;28;20041;-73
2022/04/28 03:23:33;;;;;;;53.53;30.27;;;;;;;;;;5068865;28;20746;-73
2022/04/28 03:25:58;;;;;;;55.40;28.13;;;;;;;;;;5051142;28;20051;-73
2022/04/28 03:28:23;;;;;;;59.90;29.45;;;;;;;;;;5065891;28;20269;-71
2022/04/28 03:30:49;;;;;;;57.70;30.05;;;;;;;;;;5050398;28;20040;-72
2022/04/28 03:33:15;;;;;;;58.72;28.83;;;;;;;;;;5068797;28;20548;-72
2022/04/28 03:35:41;;;;;;;51.03;27.08;;;;;;;;;;5068519;28;20390;-73
2022/04/28 03:38:09;;;;;;;55.42;28.45;;;;;;;;;;5067321;28;20705;-72
2022/04/28 03:40:41;;;;;;;53.47;28.58;;;;;;;;;;5071810;28;20048;-72
2022/04/28 03:43:06;;;;;;;54.58;28.52;;;;;;;;;;5070710;28;20040;-71
2022/04/28 03:45:32;;;;;;;56.05;28.42;;;;;;;;;;5072600;28;20035;-72
2022/04/28 03:47:58;;;;;;;56.05;27.13;;;;;;;;;;5055278;28;20454;-73
2022/04/28 03:50:24;;;;;;;54.53;28.00;;;;;;;;;;5056815;28;20028;-71
2022/04/28 03:52:49;;;;;;;53.35;27.15;;;;;;;;;;5055636;28;20032;-72
2022/04/28 03:55:14;;;;;;;55.13;28.15;;;;;;;;;;5072261;28;20036;-71
2022/04/28 03:57:41;;;;;;;54.60;27.20;;;;;;;;;;5048047;28;20045;-71
2022/04/28 04:00:06;;;;;;;53.05;27.58;;;;;;;;;;5053253;28;20043;-71
2022/04/28 04:02:31;;;;;;;52.05;26.50;;;;;;;;;;5053302;28;20036;-71
2022/04/28 04:04:57;;;;;;;54.13;27.37;;;;;;;;;;5066427;28;20446;-71
2022/04/28 04:07:22;;;;;;;52.33;26.35;;;;;;;;;;5049292;28;20284;-71
2022/04/28 04:09:47;;;;;;;52.35;27.35;;;;;;;;;;5039691;28;20033;-71
2022/04/28 04:12:13;;;;;;;55.15;26.42;;;;;;;;;;5051635;28;20098;-71
2022/04/28 04:14:38;;;;;;;48.50;25.42;;;;;;;;;;5053069;28;20060;-72
2022/04/28 04:17:05;;;;;;;49.83;26.15;;;;;;;;;;5070572;28;20386;-71
2022/04/28 04:19:30;;;;;;;49.30;25.35;;;;;;;;;;5059749;28;20031;-71
2022/04/28 04:21:55;;;;;;;54.03;26.67;;;;;;;;;;5080360;28;20032;-71
2022/04/28 04:24:20;;;;;;;52.00;26.47;;;;;;;;;;5053736;28;20098;-73
2022/04/28 04:26:46;;;;;;;48.20;25.10;;;;;;;;;;5071597;28;20287;-72
2022/04/28 04:29:12;;;;;;;48.47;25.13;;;;;;;;;;5053016;28;20257;-70
2022/04/28 04:34:22;;;;;;;52.55;25.33;;;;;;;;;;5068483;28;20033;-71
2022/04/28 04:36:48;;;;;;;48.13;25.10;;;;;;;;;;5070341;28;20148;-72
2022/04/28 04:39:13;;;;;;;55.45;26.05;;;;;;;;;;5071645;28;20241;-72
2022/04/28 04:41:38;;;;;;;44.83;23.27;;;;;;;;;;5071704;28;20546;-73
2022/04/28 04:44:04;;;;;;;49.30;25.00;;;;;;;;;;5071908;28;20033;-72
2022/04/28 04:46:29;;;;;;;49.95;26.00;;;;;;;;;;5066206;28;20283;-73
2022/04/28 04:48:54;;;;;;;49.13;23.83;;;;;;;;;;5051883;28;20033;-72
2022/04/28 04:51:19;;;;;;;46.80;24.97;;;;;;;;;;5070061;28;20257;-73
2022/04/28 04:53:45;;;;;;;47.43;24.00;;;;;;;;;;5076650;28;20068;-72
2022/04/28 04:56:10;;;;;;;49.33;24.80;;;;;;;;;;5064106;28;20442;-71
2022/04/28 04:58:35;;;;;;;50.70;24.67;;;;;;;;;;5047244;28;20056;-71
2022/04/28 05:01:01;;;;;;;46.07;24.07;;;;;;;;;;5043150;28;20033;-73
2022/04/28 05:03:27;;;;;;;48.72;24.10;;;;;;;;;;5051125;28;20266;-71
2022/04/28 05:05:53;;;;;;;46.75;24.13;;;;;;;;;;5050565;28;20044;-71
2022/04/28 05:08:18;;;;;;;47.78;24.67;;;;;;;;;;5070566;28;20445;-71
2022/04/28 05:10:44;;;;;;;49.40;25.88;;;;;;;;;;5051402;28;20040;-70
2022/04/28 05:13:09;;;;;;;44.15;22.85;;;;;;;;;;5053084;28;20055;-71
2022/04/28 05:15:34;;;;;;;49.50;23.90;;;;;;;;;;5051051;28;20090;-71
2022/04/28 05:18:00;;;;;;;44.08;23.90;;;;;;;;;;5073361;28;20059;-70
2022/04/28 05:20:25;;;;;;;46.23;25.40;;;;;;;;;;5061995;28;20047;-71
2022/04/28 05:22:50;;;;;;;46.67;24.73;;;;;;;;;;5068535;28;20789;-70
2022/04/28 05:25:16;;;;;;;45.55;25.05;;;;;;;;;;5095916;28;20072;-72
2022/04/28 05:27:41;;;;;;;45.92;24.90;;;;;;;;;;5076591;28;20428;-69
2022/04/28 05:30:06;;;;;;;44.65;24.20;;;;;;;;;;5094430;28;20066;-76
2022/04/28 05:32:32;;;;;;;49.30;24.77;;;;;;;;;;5088588;28;20021;-75
2022/04/28 05:34:57;;;;;;;45.95;25.33;;;;;;;;;;5071952;28;20069;-75
2022/04/28 05:37:22;;;;;;;44.20;24.93;;;;;;;;;;5067083;28;20121;-70
2022/04/28 05:39:48;;;;;;;45.00;23.85;;;;;;;;;;5070870;28;20281;-69
2022/04/28 05:42:13;;;;;;;43.22;24.42;;;;;;;;;;5077823;28;20553;-69
2022/04/28 05:47:24;;;;;;;48.70;25.88;;;;;;;;;;5076644;28;20032;-70
2022/04/28 05:49:50;;;;;;;46.60;25.25;;;;;;;;;;5075616;28;20046;-71
2022/04/28 05:52:15;;;;;;;43.63;24.35;;;;;;;;;;5074741;28;20115;-72
2022/04/28 05:54:40;;;;;;;44.92;23.25;;;;;;;;;;5074262;28;20429;-72
2022/04/28 05:57:06;;;;;;;45.28;23.35;;;;;;;;;;5070803;28;20064;-72
2022/04/28 05:59:31;;;;;;;50.00;27.25;;;;;;;;;;5064857;28;20063;-71
2022/04/28 06:01:56;;;;;;;45.73;24.00;;;;;;;;;;5052623;28;20044;-71
2022/04/28 06:04:22;;;;;;;42.65;24.58;;;;;;;;;;5078928;28;20481;-70
2022/04/28 06:06:47;;;;;;;40.30;23.43;;;;;;;;;;5057123;28;20123;-73
2022/04/28 06:09:12;;;;;;;43.22;24.70;;;;;;;;;;5052923;28;20279;-76
2022/04/28 06:11:38;;;;;;;41.65;24.23;;;;;;;;;;5076371;28;20474;-72
2022/04/28 06:14:03;;;;;;;44.63;24.13;;;;;;;;;;5055128;28;20036;-72
2022/04/28 06:16:28;;;;;;;42.33;24.08;;;;;;;;;;5063822;28;20749;-75
2022/04/28 06:18:53;;;;;;;46.17;25.93;;;;;;;;;;5071175;28;20036;-71
2022/04/28 06:21:19;;;;;;;50.23;27.60;;;;;;;;;;5069292;28;20039;-72
2022/04/28 06:23:45;;;;;;;44.30;25.73;;;;;;;;;;5050838;28;20297;-72
2022/04/28 06:26:11;;;;;;;47.22;26.33;;;;;;;;;;5042955;28;20299;-71
2022/04/28 06:28:36;;;;;;;48.07;25.23;;;;;;;;;;5057407;28;20044;-72
2022/04/28 06:31:01;;;;;;;63.67;36.63;;;;;;;;;;5055547;28;20260;-72
2022/04/28 06:33:26;;;;;;;49.15;27.67;;;;;;;;;;5056002;28;20346;-71
2022/04/28 06:35:52;;;;;;;50.87;28.33;;;;;;;;;;5065255;28;20331;-70
2022/04/28 06:38:17;;;;;;;44.85;24.40;;;;;;;;;;5067079;28;20395;-71
2022/04/28 06:40:42;;;;;;;45.05;24.30;;;;;;;;;;5061173;28;20039;-74
2022/04/28 06:43:07;;;;;;;47.80;25.07;;;;;;;;;;5052435;28;20046;-72
2022/04/28 06:45:33;;;;;;;40.63;22.73;;;;;;;;;;5068866;28;20269;-71
2022/04/28 06:47:58;;;;;;;39.05;22.02;;;;;;;;;;5066534;28;20039;-72
2022/04/28 06:50:23;;;;;;;38.93;22.80;;;;;;;;;;5068621;28;20040;-70
2022/04/28 06:52:49;;;;;;;36.78;22.10;;;;;;;;;;5053818;28;20690;-71
2022/04/28 06:55:14;;;;;;;40.97;22.77;;;;;;;;;;5050353;28;20128;-71
2022/04/28 06:57:40;;;;;;;40.17;22.83;;;;;;;;;;5071223;28;20117;-72
2022/04/28 07:00:07;;;;;;;43.15;21.88;;;;;;;;;;5070711;28;20123;-73
2022/04/28 07:02:32;;;;;;;40.10;21.45;;;;;;;;;;5074445;28;20035;-73
2022/04/28 07:05:08;;;;;;;;;;;;;;;;;;;;;
2022/04/28 07:07:33;;;;;;;33.95;19.58;;;;;;;;;;5069487;28;20746;-73
2022/04/28 07:09:59;;;;;;;34.97;20.58;;;;;;;;;;5079312;28;20053;-74
2022/04/28 07:12:24;;;;;;;37.20;22.13;;;;;;;;;;5044870;28;20090;-71
2022/04/28 07:14:49;;;;;;;39.67;22.63;;;;;;;;;;5050518;28;20665;-73
2022/04/28 07:17:14;;;;;;;36.23;20.00;;;;;;;;;;5059880;28;20326;-73
2022/04/28 07:19:40;;;;;;;33.60;19.58;;;;;;;;;;5054493;28;20718;-73
2022/04/28 07:22:05;;;;;;;32.70;19.87;;;;;;;;;;5054651;28;20036;-73
2022/04/28 07:24:31;;;;;;;35.45;20.48;;;;;;;;;;5070813;28;20323;-72
2022/04/28 07:26:56;;;;;;;36.00;18.17;;;;;;;;;;5069011;28;20037;-72
2022/04/28 07:29:22;;;;;;;32.07;19.07;;;;;;;;;;5071995;28;20035;-71
2022/04/28 07:31:47;;;;;;;27.27;16.80;;;;;;;;;;5053903;28;20303;-73
2022/04/28 07:34:12;;;;;;;26.80;15.80;;;;;;;;;;5071335;28;20293;-72
2022/04/28 07:36:38;;;;;;;22.07;13.43;;;;;;;;;;5051923;28;20028;-72
2022/04/28 07:39:03;;;;;;;21.42;12.73;;;;;;;;;;5072060;28;20284;-71
2022/04/28 07:41:29;;;;;;;20.73;12.85;;;;;;;;;;5064683;28;20474;-73
2022/04/28 07:43:54;;;;;;;18.95;11.85;;;;;;;;;;5053780;28;20056;-72
2022/04/28 07:46:20;;;;;;;13.65;9.40;;;;;;;;;;5063164;28;20129;-70
2022/04/28 07:48:45;;;;;;;17.42;11.00;;;;;;;;;;5071506;28;20033;-71
2022/04/28 07:51:11;;;;;;;17.23;10.57;;;;;;;;;;5068945;28;20040;-72
2022/04/28 07:53:37;;;;;;;20.88;11.45;;;;;;;;;;5073072;28;20607;-73
2022/04/28 07:56:15;;;;;;;16.75;10.25;;;;;;;;;;5069648;28;20494;-70
2022/04/28 07:58:41;;;;;;;19.67;12.25;;;;;;;;;;5050256;28;20086;-71
2022/04/28 08:01:07;;;;;;;20.38;12.05;;;;;;;;;;5067368;28;20159;-72
2022/04/28 08:03:41;;;;;;;21.45;13.10;;;;;;;;;;5054466;28;20051;-70
2022/04/28 08:06:08;;;;;;;22.48;12.35;;;;;;;;;;5042596;28;20039;-71
2022/04/28 08:08:36;;;;;;;21.92;13.68;;;;;;;;;;5051001;28;20390;-72
2022/04/28 08:11:03;;;;;;;23.30;14.80;;;;;;;;;;5072607;28;20089;-70
2022/04/28 08:13:28;;;;;;;25.10;14.23;;;;;;;;;;5053878;28;20036;-71
2022/04/28 08:15:54;;;;;;;20.90;13.68;;;;;;;;;;5049572;28;20166;-71
2022/04/28 08:18:25;;;;;;;22.52;13.50;;;;;;;;;;5074982;28;20119;-69
2022/04/28 08:20:54;;;;;;;22.02;13.77;;;;;;;;;;5067572;28;20118;-70
2022/04/28 08:23:22;;;;;;;24.10;13.98;;;;;;;;;;5076576;28;20040;-70
2022/04/28 08:25:47;;;;;;;20.50;14.07;;;;;;;;;;5053508;28;20055;-72
2022/04/28 08:28:22;;;;;;;19.08;11.93;;;;;;;;;;5072822;28;20467;-69
2022/04/28 08:30:48;;;;;;;17.15;10.75;;;;;;;;;;5072644;28;20040;-71
2022/04/28 08:33:14;;;;;;;14.52;8.50;;;;;;;;;;5054857;28;20032;-72
2022/04/28 08:35:39;;;;;;;13.47;8.63;;;;;;;;;;5070632;28;20390;-72
2022/04/28 08:38:04;;;;;;;18.52;10.13;;;;;;;;;;5071471;28;20273;-72
2022/04/28 08:40:31;;;;;;;16.05;9.85;;;;;;;;;;5072136;28;20083;-73
2022/04/28 08:42:58;;;;;;;16.85;11.77;;;;;;;11.46;nan;101007.47;5054277;28;20042;-71
2022/04/28 08:45:28;;;;;;;20.60;12.52;;;;;;;;;;5072329;28;20433;-71
2022/04/28 08:47:56;;;;;;;22.42;13.02;;;;;;;;;;5047321;28;20060;-71
2022/04/28 08:50:22;;;;;;;20.27;14.55;;;;;;;;;;5064685;28;20063;-72
2022/04/28 08:52:48;;;;;;;19.58;12.85;;;;;;;;;;5053150;28;20529;-77
2022/04/28 08:55:15;;;;;;;16.45;10.45;;;;;;;;;;5070482;28;20094;-72
2022/04/28 08:57:40;;;;;;;17.48;10.63;;;;;;;;;;5072159;28;20045;-73
2022/04/28 09:00:06;;;;;;;16.90;10.85;;;;;;;;;;5050115;28;20051;-71
2022/04/28 09:02:32;;;;;;;15.35;10.07;;;;;;;;;;5050783;28;20029;-73
2022/04/28 09:05:01;;;;;;;13.75;8.95;;;;;;;;;;5051357;28;20048;-75
2022/04/28 09:07:37;;;;;;;11.80;8.07;;;;;;;;;;5067286;28;20035;-72
2022/04/28 09:10:23;;;;;;;16.40;9.25;;;;;;;;;;5071359;28;20047;-73
2022/04/28 09:15:58;;;;;;;16.10;9.93;;;;;;;;;;5069187;28;20553;-76
2022/04/28 09:18:24;;;;;;;13.47;8.87;;;;;;;;;;5071384;28;20131;-75
2022/04/28 09:20:50;;;;;;;12.98;8.80;;;;;;;;;;5071663;28;20039;-73
2022/04/28 09:23:17;;;;;;;11.52;8.05;;;;;;;;;;5053446;28;20406;-75
2022/04/28 09:25:43;;;;;;;10.20;7.00;;;;;;;;;;5070344;28;20028;-76
2022/04/28 09:28:09;;;;;;;15.88;8.20;;;;;;;;;;5050052;28;20445;-72
2022/04/28 09:30:39;;;;;;;11.05;6.88;;;;;;;;;;5068436;28;20075;-72
2022/04/28 09:33:12;;;;;;;10.88;6.60;;;;;;;;;;5055960;28;20445;-72
2022/04/28 09:35:48;;;;;;;9.27;5.95;;;;;;;;;;5053053;28;20106;-72
2022/04/28 09:38:13;;;;;;;9.90;6.55;;;;;;;;;;5071164;28;20032;-72
2022/04/28 09:43:22;;;;;;;12.10;7.75;;;;;;;;;;5071402;28;20089;-72
2022/04/28 09:45:51;;;;;;;11.63;8.07;;;;;;;;;;5053271;28;20020;-71
2022/04/28 09:48:18;;;;;;;16.77;9.40;;;;;;;;;;5071200;28;20067;-72
2022/04/28 09:50:45;;;;;;;15.00;9.48;;;;;;;;;;5053418;28;20119;-72
2022/04/28 09:53:11;;;;;;;14.23;9.43;;;;;;;;;;5053607;28;20040;-70
2022/04/28 09:55:38;;;;;;;15.02;9.50;;;;;;;;;;5062518;28;20048;-71
2022/04/28 09:58:08;;;;;;;13.27;9.48;;;;;;;;;;5050219;28;20048;-70
2022/04/28 10:00:34;;;;;;;18.30;10.32;;;;;;;;;;5053987;28;20094;-71
2022/04/28 10:03:02;;;;;;;15.60;9.68;;;;;;;;;;5072082;28;20044;-74
2022/04/28 10:05:27;;;;;;;15.48;10.23;;;;;;;;;;5072147;28;20415;-72
2022/04/28 10:07:53;;;;;;;17.02;11.00;;;;;;;;;;5071884;28;20128;-71
2022/04/28 10:10:19;;;;;;;17.20;10.75;;;;;;;;;;5053798;28;20047;-75
2022/04/28 10:12:44;;;;;;;15.83;10.27;;;;;;;;;;5053599;28;20037;-75
2022/04/28 10:15:11;;;;;;;18.27;11.10;;;;;;;;;;5071562;28;20297;-71
2022/04/28 10:17:45;;;;;;;15.25;10.18;;;;;;;;;;5052403;28;20065;-72
2022/04/28 10:20:13;;;;;;;14.40;9.80;;;;;;;;;;5058222;28;20487;-72
2022/04/28 10:22:39;;;;;;;16.25;10.05;;;;;;;;;;5054737;28;20047;-70
2022/04/28 10:33:22;;;;;;;16.40;10.35;;;;;;;;;;5065115;28;20049;-71
2022/04/28 10:35:48;;;;;;;15.77;10.10;;;;;;;;;;5071931;28;20021;-71
2022/04/28 10:38:34;;;;;;;15.57;9.63;;;;;;;;;;5070688;28;20021;-75
2022/04/28 10:41:04;;;;;;;12.38;8.68;;;;;;;;;;5066674;28;20082;-75
2022/04/28 10:43:32;;;;;;;13.00;8.73;;;;;;;;;;5049081;28;20399;-74
2022/04/28 10:46:22;;;;;;;13.10;8.60;;;;;;;;;;5058087;28;20037;-75
2022/04/28 10:48:51;;;;;;;13.32;8.95;;;;;;;;;;5040207;28;20032;-74
2022/04/28 10:51:17;;;;;;;;;;;;;;;;;;5059123;28;20389;-74
2022/04/28 10:54:00;;;;;;;13.38;8.35;;;;;;;;;;5058401;28;19916;-74
2022/04/28 10:56:27;;;;;;;9.80;6.82;;;;;;;;;;5057123;28;20116;-74
2022/04/28 10:58:59;;;;;;;11.43;7.38;;;;;;;;;;5057141;28;20474;-73
2022/04/28 11:01:34;;;;;;;11.65;8.07;;;;;;;;;;5036786;28;20040;-75
2022/04/28 11:04:02;;;;;;;12.63;8.60;;;;;;;;;;5055407;28;20033;-71
2022/04/28 11:06:30;;;;;;;11.63;8.13;;;;;;;;;;5055810;28;20613;-72
2022/04/28 11:08:57;;;;;;;12.70;9.35;;;;;;;;;;5037082;28;20040;-71
2022/04/28 11:11:28;;;;;;;12.57;9.35;;;;;;;;;;5033510;28;20037;-71
2022/04/28 11:13:57;;;;;;;14.63;10.25;;;;;;;;;;5063016;28;20052;-73
2022/04/28 11:16:23;;;;;;;15.70;10.65;;;;;;;;;;5033313;28;20072;-71
2022/04/28 11:18:48;;;;;;;17.00;11.45;;;;;;;;;;5059734;28;20041;-71
2022/04/28 11:21:15;;;;;;;15.98;12.05;;;;;;;;;;5047971;28;20044;-71
2022/04/28 11:23:45;;;;;;;17.33;12.07;;;;;;;;;;5041413;28;20041;-72
2022/04/28 11:26:11;;;;;;;19.70;12.98;;;;;;;;;;5048225;28;20059;-70
2022/04/28 11:28:37;;;;;;;13.38;9.50;;;;;;;;;;5051775;28;20550;-69
2022/04/28 11:31:06;;;;;;;16.25;10.50;;;;;;;;;;5046742;28;20064;-70
2022/04/28 11:33:31;;;;;;;16.23;10.77;;;;;;;;;;5043384;28;20103;-70
2022/04/28 11:35:56;;;;;;;14.63;10.10;;;;;;;;;;5048489;28;20537;-70
2022/04/28 11:38:31;;;;;;;17.00;11.03;;;;;;;;;;5033479;28;20036;-73
2022/04/28 11:41:03;;;;;;;18.75;11.43;;;;;;;;;;5050245;28;20309;-71
2022/04/28 11:43:34;;;;;;;16.88;11.30;;;;;;;;;;5033690;28;20041;-71
2022/04/28 11:46:00;;;;;;;14.85;10.57;;;;;;;;;;5050426;28;20130;-71
2022/04/28 11:48:29;;;;;;;15.10;11.13;;;;;;;;;;5031478;28;20529;-70
2022/04/28 11:51:00;;;;;;;15.73;11.18;;;;;;;;;;5049972;28;20080;-69
2022/04/28 11:53:26;;;;;;;15.75;11.13;;;;;;;;;;5049152;28;20029;-71
2022/04/28 11:55:51;;;;;;;15.00;10.43;;;;;;;;;;5024218;28;20052;-70
2022/04/28 11:58:16;;;;;;;16.30;11.80;;;;;;;;;;5052915;28;20419;-70
2022/04/28 12:00:42;;;;;;;16.52;11.20;;;;;;;;;;5051921;28;20318;-71
2022/04/28 12:03:08;;;;;;;18.65;11.25;;;;;;;;;;5052403;28;20579;-72
2022/04/28 12:05:34;;;;;;;15.85;9.93;;;;;;;;;;5041994;28;20065;-72
2022/04/28 12:07:59;;;;;;;13.85;10.18;;;;;;;;;;5032834;28;20048;-71
2022/04/28 12:16:00;;;;;;;14.73;9.45;;;;;;;11.80;nan;101024.59;5057284;28;20402;-70
2022/04/28 12:21:15;;;;;;;14.20;10.70;;;;;;;;;;5048874;28;20164;-72
2022/04/28 12:23:42;;;;;;;15.82;10.90;;;;;;;;;;5052440;28;20037;-71
2022/04/28 12:26:08;;;;;;;15.90;11.18;;;;;;;;;;5043633;28;20044;-71
2022/04/28 12:28:35;;;;;;;15.63;11.15;;;;;;;;;;5043184;28;20416;-72
2022/04/28 12:31:04;;;;;;;13.27;10.75;;;;;;;;;;5047798;28;20048;-71
2022/04/28 12:33:31;;;;;;;18.75;11.95;;;;;;;;;;5045802;28;20036;-72
2022/04/28 12:35:59;;;;;;;19.17;12.88;;;;;;;;;;5020301;28;20047;-72
2022/04/28 12:38:28;;;;;;;16.35;12.13;;;;;;;;;;5041770;28;20086;-72
2022/04/28 12:40:54;;;;;;;18.30;13.10;;;;;;;;;;5046319;28;20068;-76
2022/04/28 12:43:39;;;;;;;18.27;12.52;;;;;;;;;;5030910;28;20041;-74
2022/04/28 12:46:06;;;;;;;17.80;12.20;;;;;;;;;;5049589;28;20033;-76
2022/04/28 12:48:35;;;;;;;18.33;12.00;;;;;;;;;;5051490;28;20490;-74
2022/04/28 12:51:07;;;;;;;19.65;13.00;;;;;;;;;;5030164;28;20499;-71
2022/04/28 12:53:33;;;;;;;17.05;12.98;;;;;;;;;;5048255;28;20036;-71
2022/04/28 12:56:06;;;;;;;18.02;13.55;;;;;;;;;;5046075;28;20380;-69
2022/04/28 12:58:35;;;;;;;19.35;13.80;;;;;;;12.13;nan;101012.94;5044102;28;20052;-70
2022/04/28 13:01:00;;;;;;;20.92;13.90;;;;;;;;;;5037258;28;20060;-69
2022/04/28 13:03:28;;;;;;;24.13;15.43;;;;;;;;;;5048212;28;20487;-70
2022/04/28 13:05:53;;;;;;;20.67;13.95;;;;;;;;;;5050455;28;20270;-70
2022/04/28 13:08:18;;;;;;;19.88;13.27;;;;;;;;;;5026542;28;20044;-68
2022/04/28 13:10:43;;;;;;;20.53;14.13;;;;;;;;;;5048700;28;20490;-70
2022/04/28 13:13:09;;;;;;;19.88;14.20;;;;;;;;;;5033173;28;20331;-70
2022/04/28 13:15:34;;;;;;;21.13;14.17;;;;;;;;;;5048832;28;20040;-70
2022/04/28 13:17:59;;;;;;;22.87;15.93;;;;;;;;;;5047244;28;20289;-70
2022/04/28 13:20:25;;;;;;;19.90;14.80;;;;;;;;;;5046140;28;20301;-69
2022/04/28 13:22:50;;;;;;;22.95;15.52;;;;;;;;;;5034391;28;20343;-70
2022/04/28 13:25:16;;;;;;;23.57;15.43;;;;;;;;;;5042575;28;20032;-71
2022/04/28 13:27:41;;;;;;;21.90;15.10;;;;;;;;;;5032820;28;20037;-71
2022/04/28 13:30:07;;;;;;;25.63;16.73;;;;;;;;;;5050028;28;20261;-69
2022/04/28 13:32:33;;;;;;;20.77;15.32;;;;;;;;;;5047047;28;20033;-69
2022/04/28 13:34:58;;;;;;;27.65;18.17;;;;;;;;;;5036324;28;20041;-70
2022/04/28 13:37:23;;;;;;;27.73;17.03;;;;;;;;;;5047145;28;20040;-69
2022/04/28 13:39:48;;;;;;;24.67;17.07;;;;;;;;;;5047801;28;20270;-70
2022/04/28 13:42:14;;;;;;;24.43;16.47;;;;;;;;;;5050549;28;20045;-69
2022/04/28 13:44:40;;;;;;;25.73;16.93;;;;;;;;;;5043356;28;20416;-70
2022/04/28 13:47:06;;;;;;;23.88;13.45;;;;;;;;;;5031480;28;20044;-71
2022/04/28 13:49:32;;;;;;;21.88;14.30;;;;;;;;;;5050057;28;20368;-71
2022/04/28 13:51:57;;;;;;;26.58;14.93;;;;;;;;;;5046128;28;20052;-70
2022/04/28 13:54:23;;;;;;;24.07;15.13;;;;;;;;;;5043012;28;20112;-71
2022/04/28 13:56:48;;;;;;;23.77;15.55;;;;;;;;;;5036435;28;20289;-71
2022/04/28 13:59:13;;;;;;;23.83;15.20;;;;;;;;;;5048285;28;20550;-71
2022/04/28 14:01:39;;;;;;;25.13;16.33;;;;;;;;;;5045932;28;20040;-69
2022/04/28 14:04:05;;;;;;;23.88;15.30;;;;;;;;;;5047278;28;20040;-71
2022/04/28 14:06:31;;;;;;;22.35;15.77;;;;;;;;;;5037767;28;20042;-69
2022/04/28 14:08:56;;;;;;;24.50;15.82;;;;;;;;;;5047941;28;20040;-70
2022/04/28 14:11:22;;;;;;;25.35;15.57;;;;;;;;;;5045128;28;20460;-70
2022/04/28 14:13:47;;;;;;;22.67;15.02;;;;;;;;;;5047095;28;20456;-70
2022/04/28 14:16:12;;;;;;;23.33;15.77;;;;;;;;;;5032486;28;20106;-71
2022/04/28 14:18:38;;;;;;;22.60;15.43;;;;;;;;;;5051095;28;20040;-70
2022/04/28 14:21:03;;;;;;;23.75;16.15;;;;;;;;;;5034281;28;20116;-70
2022/04/28 14:23:29;;;;;;;25.25;15.35;;;;;;;;;;5048696;28;20068;-71
2022/04/28 14:25:55;;;;;;;21.08;14.82;;;;;;;;;;5037117;28;20112;-71
2022/04/28 14:28:22;;;;;;;24.05;15.68;;;;;;;;;;5025308;28;20545;-71
2022/04/28 14:30:48;;;;;;;23.50;15.23;;;;;;;;;;5049089;28;20040;-69
2022/04/28 14:33:13;;;;;;;20.77;14.18;;;;;;;;;;5058327;28;20053;-69
2022/04/28 14:35:38;;;;;;;23.58;14.93;;;;;;;;;;5068511;28;20147;-69
2022/04/28 14:38:03;;;;;;;21.90;14.07;;;;;;;;;;5061600;28;20095;-70
2022/04/28 14:40:29;;;;;;;20.00;13.23;;;;;;;;;;5071381;28;20033;-70
2022/04/28 14:42:56;;;;;;;20.65;14.32;;;;;;;;;;5074145;28;20482;-70
2022/04/28 14:45:21;;;;;;;19.65;13.60;;;;;;;;;;5071699;28;20032;-70
2022/04/28 14:47:46;;;;;;;22.23;13.73;;;;;;;;;;5064449;28;20017;-70
2022/04/28 14:52:56;;;;;;;18.85;13.02;;;;;;;;;;5056339;28;20036;-69